createdAt,value
2018-06-18T00:01:33.031Z,2.72
2018-06-18T00:04:02.272Z,3.10
2018-06-18T00:06:31.596Z,3.50
2018-06-18T00:09:00.865Z,2.65
2018-06-18T00:11:30.123Z,2.95
2018-06-18T00:13:59.325Z,2.62
2018-06-18T00:16:29.281Z,3.05
2018-06-18T00:18:58.519Z,2.87
2018-06-18T00:21:27.758Z,3.05
2018-06-18T00:23:57.018Z,3.67
2018-06-18T00:26:26.290Z,3.00
2018-06-18T00:28:55.647Z,2.60
2018-06-18T00:31:24.983Z,3.02
2018-06-18T00:33:54.420Z,2.75
2018-06-18T00:36:23.707Z,3.30
2018-06-18T00:38:53.725Z,2.90
2018-06-18T00:41:23.599Z,3.12
2018-06-18T00:43:54.192Z,3.05
2018-06-18T00:46:23.442Z,3.12
2018-06-18T00:48:52.724Z,3.40
2018-06-18T00:51:21.927Z,2.95
2018-06-18T00:53:51.344Z,3.05
2018-06-18T00:56:20.581Z,2.95
2018-06-18T00:58:49.871Z,3.20
2018-06-18T01:01:19.488Z,2.58
2018-06-18T01:03:48.759Z,3.20
2018-06-18T01:06:18.040Z,2.67
2018-06-18T01:08:47.336Z,2.67
2018-06-18T01:11:17.543Z,2.70
2018-06-18T01:13:46.752Z,2.90
2018-06-18T01:16:15.986Z,2.98
2018-06-18T01:18:45.222Z,3.30
2018-06-18T01:21:14.495Z,2.87
2018-06-18T01:23:51.546Z,3.25
2018-06-18T01:26:20.923Z,3.08
2018-06-18T01:28:50.214Z,2.60
2018-06-18T01:31:19.443Z,2.87
2018-06-18T01:33:49.549Z,2.70
2018-06-18T01:36:18.797Z,2.60
2018-06-18T01:38:48.066Z,2.80
2018-06-18T01:41:17.320Z,2.85
2018-06-18T01:43:46.597Z,2.70
2018-06-18T01:46:15.471Z,2.20
2018-06-18T01:48:44.583Z,2.40
2018-06-18T01:51:13.828Z,2.80
2018-06-18T01:53:43.065Z,2.52
2018-06-18T01:56:12.275Z,2.72
2018-06-18T01:58:41.521Z,2.72
2018-06-18T02:01:10.403Z,2.50
2018-06-18T02:03:39.543Z,2.52
2018-06-18T02:06:08.779Z,2.87
2018-06-18T02:08:38.008Z,3.13
2018-06-18T02:11:07.253Z,2.60
2018-06-18T02:13:44.776Z,2.83
2018-06-18T02:16:14.131Z,3.37
2018-06-18T02:18:43.431Z,3.60
2018-06-18T02:21:12.971Z,2.95
2018-06-18T02:23:42.243Z,3.30
2018-06-18T02:26:11.448Z,3.37
2018-06-18T02:28:46.079Z,3.10
2018-06-18T02:31:20.652Z,2.70
2018-06-18T02:33:55.231Z,3.03
2018-06-18T02:36:29.825Z,2.43
2018-06-18T02:39:04.556Z,3.00
2018-06-18T02:41:33.782Z,2.83
2018-06-18T02:44:03.107Z,2.90
2018-06-18T02:46:32.350Z,2.75
2018-06-18T02:49:01.669Z,2.60
2018-06-18T02:51:30.969Z,2.70
2018-06-18T02:54:00.224Z,2.70
2018-06-18T02:56:43.048Z,2.75
2018-06-18T02:59:12.610Z,2.70
2018-06-18T03:01:41.841Z,2.62
2018-06-18T03:04:11.103Z,2.85
2018-06-18T03:06:40.320Z,2.70
2018-06-18T03:09:11.436Z,3.33
2018-06-18T03:11:41.014Z,3.27
2018-06-18T03:14:10.548Z,3.17
2018-06-18T03:16:39.793Z,3.10
2018-06-18T03:19:14.225Z,2.72
2018-06-18T03:21:48.727Z,3.00
2018-06-18T03:24:23.471Z,2.85
2018-06-18T03:26:57.988Z,3.20
2018-06-18T03:29:29.979Z,2.42
2018-06-18T03:32:00.856Z,3.08
2018-06-18T03:34:30.065Z,3.08
2018-06-18T03:37:00.261Z,2.95
2018-06-18T03:39:29.540Z,2.77
2018-06-18T03:41:58.947Z,3.25
2018-06-18T03:44:36.616Z,3.07
2018-06-18T03:47:10.852Z,3.30
2018-06-18T03:49:40.147Z,3.30
2018-06-18T03:52:09.350Z,3.20
2018-06-18T03:54:38.612Z,3.37
2018-06-18T03:57:08.283Z,2.90
2018-06-18T03:59:37.512Z,3.00
2018-06-18T04:02:15.781Z,3.10
2018-06-18T04:04:55.310Z,2.93
2018-06-18T04:07:32.987Z,3.00
2018-06-18T04:10:07.592Z,3.07
2018-06-18T04:12:36.833Z,3.02
2018-06-18T04:15:06.184Z,2.90
2018-06-18T04:17:35.845Z,2.98
2018-06-18T04:20:05.289Z,2.90
2018-06-18T04:22:34.779Z,2.73
2018-06-18T04:25:04.031Z,2.80
2018-06-18T04:27:33.358Z,3.30
2018-06-18T04:30:02.623Z,2.97
2018-06-18T04:32:31.940Z,3.10
2018-06-18T04:35:04.040Z,3.20
2018-06-18T04:37:33.299Z,3.60
2018-06-18T04:40:02.623Z,3.55
2018-06-18T04:42:37.134Z,3.43
2018-06-18T04:45:12.209Z,3.23
2018-06-18T04:47:46.710Z,3.58
2018-06-18T04:50:21.347Z,3.60
2018-06-18T04:52:51.703Z,3.52
2018-06-18T04:55:20.975Z,3.50
2018-06-18T04:57:50.939Z,3.25
2018-06-18T05:01:26.917Z,3.25
2018-06-18T05:03:56.376Z,3.47
2018-06-18T05:06:27.141Z,3.98
2018-06-18T05:10:07.075Z,3.83
2018-06-18T05:12:36.380Z,4.30
2018-06-18T05:15:05.642Z,4.03
2018-06-18T05:17:35.022Z,4.10
2018-06-18T05:20:07.403Z,4.40
2018-06-18T05:22:36.859Z,4.05
2018-06-18T05:25:06.653Z,4.70
2018-06-18T05:27:35.961Z,4.83
2018-06-18T05:30:15.435Z,4.37
2018-06-18T05:32:44.755Z,4.47
2018-06-18T05:35:14.280Z,4.37
2018-06-18T05:38:01.701Z,4.53
2018-06-18T05:40:31.080Z,4.63
2018-06-18T05:43:00.430Z,4.62
2018-06-18T05:45:29.781Z,4.80
2018-06-18T05:47:59.258Z,4.53
2018-06-18T05:50:28.529Z,4.85
2018-06-18T05:52:57.850Z,4.50
2018-06-18T05:55:27.267Z,4.67
2018-06-18T05:57:56.461Z,4.35
2018-06-18T06:00:25.783Z,4.45
2018-06-18T06:02:54.992Z,4.70
2018-06-18T06:05:23.983Z,4.53
2018-06-18T06:07:53.155Z,4.75
2018-06-18T06:10:22.857Z,5.35
2018-06-18T06:12:52.137Z,4.40
2018-06-18T06:15:21.773Z,4.47
2018-06-18T06:17:51.056Z,4.55
2018-06-18T06:20:20.369Z,4.92
2018-06-18T06:22:49.737Z,4.70
2018-06-18T06:25:19.375Z,4.95
2018-06-18T06:27:48.636Z,4.25
2018-06-18T06:30:17.857Z,4.70
2018-06-18T06:32:47.145Z,5.17
2018-06-18T06:35:21.280Z,5.07
2018-06-18T06:37:50.680Z,4.67
2018-06-18T06:40:19.924Z,4.67
2018-06-18T06:42:49.175Z,4.85
2018-06-18T06:45:18.522Z,4.28
2018-06-18T06:47:47.948Z,4.35
2018-06-18T06:50:17.447Z,4.28
2018-06-18T06:52:46.712Z,4.45
2018-06-18T06:55:15.954Z,4.50
2018-06-18T06:57:45.262Z,4.40
2018-06-18T07:00:14.573Z,4.58
2018-06-18T07:02:43.863Z,4.70
2018-06-18T07:05:13.157Z,4.58
2018-06-18T07:07:42.397Z,4.37
2018-06-18T07:10:11.732Z,3.77
2018-06-18T07:12:41.056Z,4.22
2018-06-18T07:15:10.296Z,4.00
2018-06-18T07:17:40.509Z,3.87
2018-06-18T07:20:09.772Z,3.90
2018-06-18T07:22:39.055Z,3.40
2018-06-18T07:25:08.684Z,3.92
2018-06-18T07:27:38.085Z,3.67
2018-06-18T07:30:07.925Z,3.25
2018-06-18T07:32:36.928Z,3.10
2018-06-18T07:35:06.136Z,2.95
2018-06-18T07:37:36.178Z,3.20
2018-06-18T07:40:05.437Z,3.20
2018-06-18T07:42:35.644Z,3.47
2018-06-18T07:45:04.980Z,3.17
2018-06-18T07:47:34.376Z,3.47
2018-06-18T07:50:03.895Z,3.95
2018-06-18T07:52:33.172Z,3.33
2018-06-18T07:55:02.466Z,3.40
2018-06-18T07:57:32.094Z,4.00
2018-06-18T08:00:02.206Z,3.62
2018-06-18T08:02:31.564Z,3.50
2018-06-18T08:05:01.656Z,3.72
2018-06-18T08:07:30.925Z,3.83
2018-06-18T08:10:00.315Z,3.87
2018-06-18T08:12:29.588Z,3.83
2018-06-18T08:14:58.894Z,3.90
2018-06-18T08:17:28.172Z,3.58
2018-06-18T08:19:57.476Z,3.37
2018-06-18T08:22:26.775Z,3.52
2018-06-18T08:24:56.161Z,3.47
2018-06-18T08:27:25.447Z,3.62
2018-06-18T08:29:54.740Z,3.47
2018-06-18T08:32:24.193Z,3.45
2018-06-18T08:34:53.520Z,3.33
2018-06-18T08:37:22.738Z,3.27
2018-06-18T08:39:52.025Z,3.62
2018-06-18T08:42:21.912Z,3.62
2018-06-18T08:44:51.207Z,2.85
2018-06-18T08:47:20.503Z,3.27
2018-06-18T08:49:55.047Z,2.80
2018-06-18T08:52:29.745Z,2.80
2018-06-18T08:55:04.894Z,3.27
2018-06-18T08:57:39.536Z,3.40
2018-06-18T09:00:14.109Z,3.50
2018-06-18T09:02:52.967Z,3.12
2018-06-18T09:05:27.705Z,2.98
2018-06-18T09:08:02.057Z,2.75
2018-06-18T09:10:31.445Z,2.87
2018-06-18T09:13:00.715Z,3.00
2018-06-18T09:15:30.146Z,2.87
2018-06-18T09:17:59.502Z,3.08
2018-06-18T09:20:28.823Z,2.92
2018-06-18T09:22:58.165Z,2.85
2018-06-18T09:25:27.600Z,3.27
2018-06-18T09:27:56.911Z,3.60
2018-06-18T09:30:26.746Z,2.90
2018-06-18T09:32:56.091Z,3.20
2018-06-18T09:35:25.677Z,2.83
2018-06-18T09:37:54.959Z,2.92
2018-06-18T09:40:24.359Z,2.70
2018-06-18T09:42:53.672Z,2.85
2018-06-18T09:45:23.033Z,3.20
2018-06-18T09:47:52.347Z,3.00
2018-06-18T09:50:29.625Z,2.85
2018-06-18T09:53:04.281Z,3.55
2018-06-18T09:55:39.021Z,2.77
2018-06-18T09:58:13.824Z,3.10
2018-06-18T10:00:58.624Z,3.00
2018-06-18T10:03:27.973Z,3.15
2018-06-18T10:05:57.422Z,3.05
2018-06-18T10:08:27.005Z,2.67
2018-06-18T10:10:56.572Z,3.15
2018-06-18T10:13:25.811Z,2.75
2018-06-18T10:15:55.602Z,3.12
2018-06-18T10:18:24.511Z,3.08
2018-06-18T10:20:53.827Z,3.10
2018-06-18T10:23:23.217Z,3.25
2018-06-18T10:25:52.503Z,3.50
2018-06-18T10:28:21.765Z,3.00
2018-06-18T10:30:51.219Z,2.83
2018-06-18T10:33:25.791Z,3.03
2018-06-18T10:36:00.533Z,3.37
2018-06-18T10:38:35.184Z,3.37
2018-06-18T10:41:09.796Z,2.92
2018-06-18T10:43:39.417Z,3.65
2018-06-18T10:46:08.893Z,2.95
2018-06-18T10:48:38.370Z,3.30
2018-06-18T10:51:07.791Z,2.95
2018-06-18T10:53:37.748Z,3.20
2018-06-18T10:56:07.114Z,2.95
2018-06-18T10:58:36.508Z,2.62
2018-06-18T11:01:09.648Z,2.80
2018-06-18T11:03:39.009Z,3.10
2018-06-18T11:06:13.423Z,3.20
2018-06-18T11:08:43.393Z,3.12
2018-06-18T11:11:13.531Z,2.80
2018-06-18T11:13:42.821Z,2.80
2018-06-18T11:16:12.167Z,3.02
2018-06-18T11:18:46.703Z,3.00
2018-06-18T11:21:21.282Z,2.67
2018-06-18T11:23:56.558Z,2.87
2018-06-18T11:26:31.345Z,2.65
2018-06-18T11:29:00.525Z,2.30
2018-06-18T11:31:30.094Z,2.80
2018-06-18T11:34:05.315Z,3.02
2018-06-18T11:36:34.820Z,2.75
2018-06-18T11:39:06.187Z,2.40
2018-06-18T11:41:35.516Z,2.50
2018-06-18T11:44:05.140Z,2.52
2018-06-18T11:46:34.449Z,2.42
2018-06-18T11:49:03.778Z,2.42
2018-06-18T11:51:33.214Z,2.37
2018-06-18T11:54:02.493Z,2.30
2018-06-18T11:56:32.235Z,2.60
2018-06-18T11:59:06.913Z,2.80
2018-06-18T12:01:41.896Z,2.72
2018-06-18T12:04:16.589Z,2.70
2018-06-18T12:06:51.208Z,2.50
2018-06-18T12:09:25.858Z,2.85
2018-06-18T12:11:55.954Z,2.90
2018-06-18T12:14:25.263Z,2.62
2018-06-18T12:16:54.577Z,2.45
2018-06-18T12:19:23.968Z,2.50
2018-06-18T12:21:53.230Z,2.90
2018-06-18T12:24:22.664Z,2.67
2018-06-18T12:26:52.013Z,2.50
2018-06-18T12:29:21.482Z,2.77
2018-06-18T12:31:51.203Z,2.87
2018-06-18T12:34:19.985Z,2.30
2018-06-18T12:36:49.159Z,3.50
2018-06-18T12:39:18.445Z,3.25
2018-06-18T12:41:52.133Z,3.20
2018-06-18T12:44:21.394Z,3.45
2018-06-18T12:46:56.118Z,3.02
2018-06-18T12:49:30.815Z,2.92
2018-06-18T12:52:05.526Z,3.08
2018-06-18T12:54:40.172Z,3.05
2018-06-18T12:57:09.900Z,2.60
2018-06-18T12:59:39.499Z,2.85
2018-06-18T13:02:13.846Z,2.80
2018-06-18T13:04:49.979Z,3.25
2018-06-18T13:07:19.263Z,2.90
2018-06-18T13:09:48.595Z,3.22
2018-06-18T13:12:17.905Z,2.75
2018-06-18T13:14:47.928Z,2.90
2018-06-18T13:17:17.262Z,3.37
2018-06-18T13:19:46.618Z,3.20
2018-06-18T13:22:16.001Z,3.35
2018-06-18T13:24:45.455Z,3.35
2018-06-18T13:27:15.648Z,3.15
2018-06-18T13:29:45.053Z,3.92
2018-06-18T13:32:14.399Z,3.87
2018-06-18T13:34:43.785Z,3.50
2018-06-18T13:37:18.364Z,3.72
2018-06-18T13:39:53.142Z,3.92
2018-06-18T13:42:27.760Z,3.40
2018-06-18T13:45:02.274Z,4.25
2018-06-18T13:47:37.239Z,4.50
2018-06-18T13:50:06.526Z,4.60
2018-06-18T13:52:36.791Z,4.58
2018-06-18T13:55:06.386Z,4.78
2018-06-18T13:57:35.740Z,5.40
2018-06-18T14:00:06.096Z,5.22
2018-06-18T14:02:35.409Z,5.17
2018-06-18T14:05:04.909Z,4.55
2018-06-18T14:07:34.236Z,4.53
2018-06-18T14:10:03.546Z,4.15
2018-06-18T14:12:32.900Z,4.72
2018-06-18T14:15:02.288Z,4.12
2018-06-18T14:17:31.713Z,4.17
2018-06-18T14:20:06.241Z,3.62
2018-06-18T14:22:35.518Z,3.42
2018-06-18T14:25:04.822Z,3.30
2018-06-18T14:27:34.151Z,3.27
2018-06-18T14:30:09.651Z,3.40
2018-06-18T14:32:44.244Z,3.60
2018-06-18T14:36:18.290Z,3.58
2018-06-18T14:38:53.541Z,3.20
2018-06-18T14:41:22.840Z,3.40
2018-06-18T14:43:52.315Z,3.30
2018-06-18T14:46:21.625Z,3.27
2018-06-18T14:48:51.484Z,3.33
2018-06-18T14:51:20.749Z,3.37
2018-06-18T14:53:49.937Z,3.22
2018-06-18T14:56:31.868Z,3.47
2018-06-18T14:59:21.852Z,4.37
2018-06-18T15:01:51.147Z,3.90
2018-06-18T15:04:20.424Z,3.90
2018-06-18T15:06:49.698Z,3.62
2018-06-18T15:09:19.156Z,3.47
2018-06-18T15:11:48.324Z,3.35
2018-06-18T15:14:17.653Z,3.17
2018-06-18T15:16:47.699Z,4.95
2018-06-18T15:19:17.010Z,4.85
2018-06-18T15:21:52.233Z,4.97
2018-06-18T15:24:57.092Z,4.33
2018-06-18T15:27:26.683Z,4.53
2018-06-18T15:29:56.541Z,4.90
2018-06-18T15:32:25.975Z,4.40
2018-06-18T15:34:55.221Z,4.08
2018-06-18T15:37:24.496Z,4.25
2018-06-18T15:39:53.779Z,3.98
2018-06-18T15:42:23.094Z,3.62
2018-06-18T15:44:52.385Z,3.87
2018-06-18T15:47:21.679Z,2.80
2018-06-18T15:49:51.179Z,2.33
2018-06-18T15:52:20.483Z,2.20
2018-06-18T15:54:49.903Z,2.50
2018-06-18T15:57:19.546Z,2.20
2018-06-18T15:59:48.783Z,2.33
2018-06-18T16:02:18.116Z,2.45
2018-06-18T16:04:47.390Z,2.30
2018-06-18T16:07:16.689Z,2.30
2018-06-18T16:09:45.975Z,2.30
2018-06-18T16:12:15.235Z,2.20
2018-06-18T16:14:44.836Z,2.42
2018-06-18T16:17:14.478Z,2.10
2018-06-18T16:19:44.043Z,2.10
2018-06-18T16:22:13.299Z,1.95
2018-06-18T16:24:42.606Z,2.22
2018-06-18T16:27:11.903Z,2.42
2018-06-18T16:29:41.265Z,2.30
2018-06-18T16:32:10.587Z,2.35
2018-06-18T16:34:39.849Z,2.17
2018-06-18T16:37:09.115Z,2.02
2018-06-18T16:39:38.406Z,2.47
2018-06-18T16:42:07.716Z,2.42
2018-06-18T16:44:37.270Z,2.35
2018-06-18T16:47:06.516Z,2.15
2018-06-18T16:49:35.853Z,2.72
2018-06-18T16:52:05.175Z,2.35
2018-06-18T16:54:34.455Z,2.05
2018-06-18T16:57:03.700Z,2.50
2018-06-18T16:59:33.129Z,2.22
2018-06-18T17:02:02.656Z,2.12
2018-06-18T17:04:31.916Z,2.40
2018-06-18T17:07:01.174Z,2.87
2018-06-18T17:09:30.447Z,2.50
2018-06-18T17:11:59.758Z,2.50
2018-06-18T17:14:29.045Z,2.30
2018-06-18T17:16:59.050Z,2.40
2018-06-18T17:19:28.063Z,2.33
2018-06-18T17:21:57.183Z,2.40
2018-06-18T17:24:26.492Z,2.37
2018-06-18T17:26:55.821Z,2.10
2018-06-18T17:29:25.101Z,2.20
2018-06-18T17:31:54.573Z,2.50
2018-06-18T17:34:24.082Z,2.50
2018-06-18T17:36:53.900Z,2.70
2018-06-18T17:39:23.192Z,2.90
2018-06-18T17:41:52.464Z,2.67
2018-06-18T17:44:21.727Z,2.40
2018-06-18T17:46:51.100Z,3.08
2018-06-18T17:49:20.626Z,2.77
2018-06-18T17:51:49.938Z,2.70
2018-06-18T17:54:19.192Z,2.92
2018-06-18T17:56:48.600Z,3.42
2018-06-18T17:59:17.827Z,2.75
2018-06-18T18:01:47.148Z,3.27
2018-06-18T18:04:16.539Z,2.90
2018-06-18T18:06:45.861Z,3.15
2018-06-18T18:09:15.247Z,2.55
2018-06-18T18:11:44.555Z,3.00
2018-06-18T18:14:13.802Z,3.12
2018-06-18T18:16:43.457Z,2.70
2018-06-18T18:19:13.031Z,2.52
2018-06-18T18:21:42.347Z,2.50
2018-06-18T18:24:11.701Z,2.67
2018-06-18T18:26:41.108Z,2.75
2018-06-18T18:29:10.558Z,3.47
2018-06-18T18:31:39.912Z,2.85
2018-06-18T18:34:09.196Z,2.65
2018-06-18T18:36:38.464Z,3.47
2018-06-18T18:39:09.620Z,3.62
2018-06-18T18:41:39.747Z,3.30
2018-06-18T18:44:09.677Z,3.02
2018-06-18T18:46:39.011Z,3.25
2018-06-18T18:49:08.406Z,3.37
2018-06-18T18:51:38.861Z,2.95
2018-06-18T18:54:18.464Z,3.70
2018-06-18T18:57:58.043Z,3.52
2018-06-18T19:00:27.252Z,3.22
2018-06-18T19:02:56.638Z,3.42
2018-06-18T19:05:26.692Z,3.62
2018-06-18T19:07:56.011Z,3.30
2018-06-18T19:10:28.180Z,3.60
2018-06-18T19:12:59.234Z,3.50
2018-06-18T19:15:28.494Z,3.22
2018-06-18T19:17:57.832Z,3.30
2018-06-18T19:20:30.791Z,3.65
2018-06-18T19:23:00.064Z,3.80
2018-06-18T19:25:29.375Z,3.55
2018-06-18T19:27:58.697Z,3.72
2018-06-18T19:30:28.700Z,3.80
2018-06-18T19:33:01.385Z,3.60
2018-06-18T19:35:30.778Z,3.83
2018-06-18T19:38:00.572Z,3.83
2018-06-18T19:40:29.965Z,4.53
2018-06-18T19:42:59.248Z,3.77
2018-06-18T19:45:29.894Z,3.70
2018-06-18T19:48:11.843Z,4.42
2018-06-18T19:50:41.212Z,4.87
2018-06-18T19:53:10.496Z,4.83
2018-06-18T19:55:39.756Z,4.40
2018-06-18T19:58:08.707Z,4.70
2018-06-18T20:00:40.440Z,4.80
2018-06-18T20:03:10.440Z,4.72
2018-06-18T20:05:39.782Z,4.90
2018-06-18T20:08:11.319Z,4.12
2018-06-18T20:10:40.633Z,4.53
2018-06-18T20:13:10.125Z,4.83
2018-06-18T20:15:39.444Z,4.75
2018-06-18T20:18:08.721Z,4.65
2018-06-18T20:20:38.715Z,4.08
2018-06-18T20:23:11.280Z,4.70
2018-06-18T20:25:46.790Z,4.22
2018-06-18T20:28:16.116Z,4.20
2018-06-18T20:30:45.451Z,4.37
2018-06-18T20:33:16.524Z,4.03
2018-06-18T20:35:50.422Z,3.65
2018-06-18T20:38:19.914Z,3.90
2018-06-18T20:40:49.284Z,4.00
2018-06-18T20:43:19.123Z,4.00
2018-06-18T20:45:48.701Z,4.20
2018-06-18T20:48:17.951Z,3.85
2018-06-18T20:50:47.331Z,3.98
2018-06-18T20:53:16.632Z,3.62
2018-06-18T20:55:45.872Z,3.60
2018-06-18T20:58:15.155Z,3.30
2018-06-18T21:00:44.455Z,3.52
2018-06-18T21:03:13.760Z,3.40
2018-06-18T21:05:43.756Z,3.87
2018-06-18T21:08:13.024Z,3.42
2018-06-18T21:10:42.888Z,3.40
2018-06-18T21:13:12.613Z,3.10
2018-06-18T21:15:42.546Z,3.58
2018-06-18T21:18:11.860Z,3.50
2018-06-18T21:20:41.392Z,3.17
2018-06-18T21:23:10.708Z,3.58
2018-06-18T21:25:40.608Z,3.10
2018-06-18T21:28:10.955Z,2.87
2018-06-18T21:30:40.215Z,3.20
2018-06-18T21:33:10.130Z,3.10
2018-06-18T21:35:39.374Z,3.20
2018-06-18T21:38:09.228Z,3.47
2018-06-18T21:40:38.641Z,2.92
2018-06-18T21:43:07.903Z,3.58
2018-06-18T21:45:37.199Z,3.47
2018-06-18T21:48:06.487Z,3.80
2018-06-18T21:50:35.794Z,3.17
2018-06-18T21:53:05.400Z,3.30
2018-06-18T21:55:34.705Z,3.02
2018-06-18T21:58:04.065Z,3.25
2018-06-18T22:00:35.700Z,3.00
2018-06-18T22:03:05.228Z,2.83
2018-06-18T22:05:34.497Z,2.85
2018-06-18T22:08:05.369Z,2.90
2018-06-18T22:10:35.367Z,3.10
2018-06-18T22:13:04.759Z,2.75
2018-06-18T22:15:34.056Z,3.10
2018-06-18T22:18:03.557Z,3.00
2018-06-18T22:20:32.941Z,2.90
2018-06-18T22:23:02.286Z,2.85
2018-06-18T22:25:31.500Z,3.20
2018-06-18T22:28:01.725Z,3.30
2018-06-18T22:30:31.003Z,2.90
2018-06-18T22:33:00.372Z,3.15
2018-06-18T22:35:29.618Z,3.70
2018-06-18T22:37:59.461Z,3.67
2018-06-18T22:40:28.742Z,3.80
2018-06-18T22:42:58.049Z,4.53
2018-06-18T22:45:28.021Z,4.90
2018-06-18T22:47:57.392Z,4.45
2018-06-18T22:50:26.652Z,4.53
2018-06-18T22:52:55.902Z,4.30
2018-06-18T22:55:25.204Z,4.53
2018-06-18T22:57:54.550Z,4.33
2018-06-18T23:00:23.793Z,4.08
2018-06-18T23:02:53.124Z,3.40
2018-06-18T23:05:22.466Z,3.42
2018-06-18T23:07:51.784Z,2.80
2018-06-18T23:10:21.188Z,3.30
2018-06-18T23:12:50.521Z,2.75
2018-06-18T23:15:19.760Z,3.12
2018-06-18T23:17:49.099Z,2.95
2018-06-18T23:20:18.512Z,3.00
2018-06-18T23:22:47.816Z,2.70
2018-06-18T23:25:17.068Z,2.70
2018-06-18T23:27:47.488Z,3.00
2018-06-18T23:30:16.755Z,2.50
2018-06-18T23:32:46.019Z,2.67
2018-06-18T23:35:15.329Z,2.50
2018-06-18T23:37:44.857Z,2.75
2018-06-18T23:40:15.307Z,2.30
2018-06-18T23:42:44.593Z,2.10
2018-06-18T23:45:13.881Z,2.47
2018-06-18T23:47:43.101Z,2.70
2018-06-18T23:50:12.444Z,2.70
2018-06-18T23:52:41.728Z,2.83
2018-06-18T23:55:11.029Z,2.30
2018-06-18T23:57:40.288Z,2.60
